Waupaca, WI (54981)

10:37 AM CST on December 19, 2014 (GMT -0600)
APRSWXNET Waupaca WI US | Change Station
CLOSE
Current Station
Personal Weather Station
Location: King, WI
Elevation: 889 ft
Nearby Weather Stations

Elev 889 ft 44.34 °N, 89.12 °W | Updated 37 minutes ago

Clear
Clear
21 °F
Feels Like 21 °F
N
0
Wind Variable Wind from NW
Gusts 0.0 mph

Today
High -- | Low -- °F
--% Chance of Precip.
Yesterday
High -- | Low -- °F
Precip. -- in
7:28 AM 4:18 PM
Waning Crescent, 7% visible
Pressure 30.31 in
Visibility 10.0 miles
Clouds Clear
Windchill 21 °F
Dew Point 20 °F
Humidity 94%
Rainfall 0.00 in
Snow Depth Not available.
UV 1 out of 12
Pollen .10 out of 12
Air Quality Not available.
Flu Activity Not available.
METAR KPCZ 191615Z AUTO 00000KT 10SM CLR M03/M05 A3031 RMK AO2 T10281055

More Conditions Fewer Conditions

Pressure 30.31 in
Visibility 10.0 miles
Clouds Clear
Windchill 21 °F
Dew Point 20 °F
Humidity 94%
Rainfall 0.00 in
Snow Depth Not available.
UV 1 out of 12
Pollen .10 out of 12
Air Quality Not available.
Flu Activity Not available.
METAR KPCZ 191615Z AUTO 00000KT 10SM CLR M03/M05 A3031 RMK AO2 T10281055

More Conditions Fewer Conditions

10-Day Weather Forecast

Almanac

Astronomy

Dec. 19, 2014 Rise Set
Actual Time
Civil Twilight
Nautical Twilight
Astronomical Twilight
Moon
Length of Visible Light
Length of Day
Tomorrow will be .
, % of the Moon is Illuminated

Today's Extremes

State Highs State Lows

Community

WunderPhotos

Upload Photos

1,779,005 photos uploaded!

WunderBlogs® & News

Nearby

Air Quality

  Air Quality AQ Index Pollutant
Not available.

Snow Depth

Station Depth Elevation

Earthquake Activity

City Distance Mag. Time & Date
Minimum magnitude displayed is 2.5.

Coastal Water Temperatures

Place Temperature

Nearby Weather Stations